sensor_id;sensor_type;location;lat;lon;timestamp;temperature;humidity
20998;DHT22;10657;51.276;6.390;2023-02-18T00:01:14;11.20;99.90
20998;DHT22;10657;51.276;6.390;2023-02-18T00:03:41;11.20;99.90
20998;DHT22;10657;51.276;6.390;2023-02-18T00:06:22;11.20;99.90
20998;DHT22;10657;51.276;6.390;2023-02-18T00:08:49;11.20;99.90
20998;DHT22;10657;51.276;6.390;2023-02-18T00:11:18;11.20;99.90
20998;DHT22;10657;51.276;6.390;2023-02-18T00:13:52;11.20;99.90
20998;DHT22;10657;51.276;6.390;2023-02-18T00:16:20;11.20;99.90
20998;DHT22;10657;51.276;6.390;2023-02-18T00:18:47;11.20;99.90
20998;DHT22;10657;51.276;6.390;2023-02-18T00:21:14;11.20;99.90
20998;DHT22;10657;51.276;6.390;2023-02-18T00:23:41;11.20;99.90
20998;DHT22;10657;51.276;6.390;2023-02-18T00:26:12;11.20;99.90
20998;DHT22;10657;51.276;6.390;2023-02-18T00:28:39;11.20;99.90
20998;DHT22;10657;51.276;6.390;2023-02-18T00:31:12;11.20;99.90
20998;DHT22;10657;51.276;6.390;2023-02-18T00:33:39;11.20;99.90
20998;DHT22;10657;51.276;6.390;2023-02-18T00:36:09;11.10;99.90
20998;DHT22;10657;51.276;6.390;2023-02-18T00:38:37;11.20;99.90
20998;DHT22;10657;51.276;6.390;2023-02-18T00:41:04;11.10;99.90
20998;DHT22;10657;51.276;6.390;2023-02-18T00:43:32;11.20;99.90
20998;DHT22;10657;51.276;6.390;2023-02-18T00:45:58;11.20;99.90
20998;DHT22;10657;51.276;6.390;2023-02-18T00:48:25;11.10;99.90
20998;DHT22;10657;51.276;6.390;2023-02-18T00:50:52;11.10;99.90
20998;DHT22;10657;51.276;6.390;2023-02-18T00:53:19;11.10;99.90
20998;DHT22;10657;51.276;6.390;2023-02-18T00:55:45;11.10;99.90
20998;DHT22;10657;51.276;6.390;2023-02-18T00:58:15;11.10;99.90
20998;DHT22;10657;51.276;6.390;2023-02-18T01:00:42;11.10;99.90
20998;DHT22;10657;51.276;6.390;2023-02-18T01:03:09;11.10;99.90
20998;DHT22;10657;51.276;6.390;2023-02-18T01:05:37;11.10;99.90
20998;DHT22;10657;51.276;6.390;2023-02-18T01:08:04;11.10;99.90
20998;DHT22;10657;51.276;6.390;2023-02-18T01:10:32;11.10;99.90
20998;DHT22;10657;51.276;6.390;2023-02-18T01:12:58;11.10;99.90
20998;DHT22;10657;51.276;6.390;2023-02-18T01:15:25;11.10;99.90
20998;DHT22;10657;51.276;6.390;2023-02-18T01:17:52;11.10;99.90
20998;DHT22;10657;51.276;6.390;2023-02-18T01:20:19;11.00;99.90
20998;DHT22;10657;51.276;6.390;2023-02-18T01:22:45;11.00;99.90
20998;DHT22;10657;51.276;6.390;2023-02-18T01:25:13;11.00;99.90
20998;DHT22;10657;51.276;6.390;2023-02-18T01:27:40;11.00;99.90
20998;DHT22;10657;51.276;6.390;2023-02-18T01:30:08;11.00;99.90
20998;DHT22;10657;51.276;6.390;2023-02-18T01:32:37;11.00;99.90
20998;DHT22;10657;51.276;6.390;2023-02-18T01:35:05;11.00;99.90
20998;DHT22;10657;51.276;6.390;2023-02-18T01:37:32;11.00;99.90
20998;DHT22;10657;51.276;6.390;2023-02-18T01:39:59;11.00;99.90
20998;DHT22;10657;51.276;6.390;2023-02-18T01:42:28;10.90;99.90
20998;DHT22;10657;51.276;6.390;2023-02-18T01:45:34;11.00;99.90
20998;DHT22;10657;51.276;6.390;2023-02-18T01:48:17;10.90;99.90
20998;DHT22;10657;51.276;6.390;2023-02-18T01:50:49;11.00;99.90
20998;DHT22;10657;51.276;6.390;2023-02-18T01:53:21;10.90;99.90
20998;DHT22;10657;51.276;6.390;2023-02-18T01:55:49;10.90;99.90
20998;DHT22;10657;51.276;6.390;2023-02-18T01:58:16;10.90;99.90
20998;DHT22;10657;51.276;6.390;2023-02-18T02:00:43;10.80;99.90
20998;DHT22;10657;51.276;6.390;2023-02-18T02:03:10;10.90;99.90
20998;DHT22;10657;51.276;6.390;2023-02-18T02:05:36;10.90;99.90
20998;DHT22;10657;51.276;6.390;2023-02-18T02:08:04;10.90;99.90
20998;DHT22;10657;51.276;6.390;2023-02-18T02:10:58;10.80;99.90
20998;DHT22;10657;51.276;6.390;2023-02-18T02:16:28;10.90;99.90
20998;DHT22;10657;51.276;6.390;2023-02-18T02:22:48;10.80;99.90
20998;DHT22;10657;51.276;6.390;2023-02-18T02:25:28;10.80;99.90
20998;DHT22;10657;51.276;6.390;2023-02-18T02:39:16;10.70;99.90
20998;DHT22;10657;51.276;6.390;2023-02-18T02:47:53;10.70;99.90
20998;DHT22;10657;51.276;6.390;2023-02-18T02:50:46;10.70;99.90
20998;DHT22;10657;51.276;6.390;2023-02-18T02:53:22;10.70;99.90
20998;DHT22;10657;51.276;6.390;2023-02-18T02:55:50;10.70;99.90
20998;DHT22;10657;51.276;6.390;2023-02-18T02:58:18;10.70;99.90
20998;DHT22;10657;51.276;6.390;2023-02-18T03:15:07;10.80;99.90
20998;DHT22;10657;51.276;6.390;2023-02-18T03:17:42;10.80;99.90
20998;DHT22;10657;51.276;6.390;2023-02-18T03:20:37;10.80;99.90
20998;DHT22;10657;51.276;6.390;2023-02-18T03:23:09;10.80;99.90
20998;DHT22;10657;51.276;6.390;2023-02-18T03:25:37;10.90;99.90
20998;DHT22;10657;51.276;6.390;2023-02-18T03:28:12;10.90;99.90
20998;DHT22;10657;51.276;6.390;2023-02-18T03:30:56;10.80;99.90
20998;DHT22;10657;51.276;6.390;2023-02-18T03:33:54;10.80;99.90
20998;DHT22;10657;51.276;6.390;2023-02-18T03:36:22;10.80;99.90
20998;DHT22;10657;51.276;6.390;2023-02-18T03:39:02;10.80;99.90
20998;DHT22;10657;51.276;6.390;2023-02-18T03:41:29;10.80;99.90
20998;DHT22;10657;51.276;6.390;2023-02-18T03:44:03;10.80;99.90
20998;DHT22;10657;51.276;6.390;2023-02-18T03:46:31;10.80;99.90
20998;DHT22;10657;51.276;6.390;2023-02-18T03:48:58;10.80;99.90
20998;DHT22;10657;51.276;6.390;2023-02-18T03:51:25;10.70;99.90
20998;DHT22;10657;51.276;6.390;2023-02-18T03:53:52;10.70;99.90
20998;DHT22;10657;51.276;6.390;2023-02-18T03:56:20;10.70;99.90
20998;DHT22;10657;51.276;6.390;2023-02-18T03:58:47;10.70;99.90
20998;DHT22;10657;51.276;6.390;2023-02-18T04:01:14;10.60;99.90
20998;DHT22;10657;51.276;6.390;2023-02-18T04:03:40;10.60;99.90
20998;DHT22;10657;51.276;6.390;2023-02-18T04:06:07;10.70;99.90
20998;DHT22;10657;51.276;6.390;2023-02-18T04:08:35;10.70;99.90
20998;DHT22;10657;51.276;6.390;2023-02-18T04:11:01;10.70;99.90
20998;DHT22;10657;51.276;6.390;2023-02-18T04:13:28;10.70;99.90
20998;DHT22;10657;51.276;6.390;2023-02-18T04:15:54;10.70;99.90
20998;DHT22;10657;51.276;6.390;2023-02-18T04:18:21;10.70;99.90
20998;DHT22;10657;51.276;6.390;2023-02-18T04:20:48;10.60;99.90
20998;DHT22;10657;51.276;6.390;2023-02-18T04:23:15;10.60;99.90
20998;DHT22;10657;51.276;6.390;2023-02-18T04:25:41;10.50;99.90
20998;DHT22;10657;51.276;6.390;2023-02-18T04:28:09;10.50;99.90
20998;DHT22;10657;51.276;6.390;2023-02-18T04:30:36;10.50;99.90
20998;DHT22;10657;51.276;6.390;2023-02-18T04:33:03;10.50;99.90
20998;DHT22;10657;51.276;6.390;2023-02-18T04:35:30;10.50;99.90
20998;DHT22;10657;51.276;6.390;2023-02-18T04:37:56;10.50;99.90
20998;DHT22;10657;51.276;6.390;2023-02-18T04:40:23;10.50;99.90
20998;DHT22;10657;51.276;6.390;2023-02-18T04:42:52;10.50;99.90
20998;DHT22;10657;51.276;6.390;2023-02-18T04:45:18;10.50;99.90
20998;DHT22;10657;51.276;6.390;2023-02-18T04:47:45;10.50;99.90
20998;DHT22;10657;51.276;6.390;2023-02-18T04:50:11;10.50;99.90
20998;DHT22;10657;51.276;6.390;2023-02-18T04:52:38;10.50;99.90
20998;DHT22;10657;51.276;6.390;2023-02-18T04:55:05;10.50;99.90
20998;DHT22;10657;51.276;6.390;2023-02-18T04:57:32;10.50;99.90
20998;DHT22;10657;51.276;6.390;2023-02-18T04:59:58;10.50;99.90
20998;DHT22;10657;51.276;6.390;2023-02-18T05:02:25;10.50;99.90
20998;DHT22;10657;51.276;6.390;2023-02-18T05:04:52;10.40;99.90
20998;DHT22;10657;51.276;6.390;2023-02-18T05:07:18;10.40;99.90
20998;DHT22;10657;51.276;6.390;2023-02-18T05:09:45;10.40;99.90
20998;DHT22;10657;51.276;6.390;2023-02-18T05:12:12;10.40;99.90
20998;DHT22;10657;51.276;6.390;2023-02-18T05:14:38;10.40;99.90
20998;DHT22;10657;51.276;6.390;2023-02-18T05:17:05;10.40;99.90
20998;DHT22;10657;51.276;6.390;2023-02-18T05:19:31;10.50;99.90
20998;DHT22;10657;51.276;6.390;2023-02-18T05:21:58;10.50;99.90
20998;DHT22;10657;51.276;6.390;2023-02-18T05:24:25;10.40;99.90
20998;DHT22;10657;51.276;6.390;2023-02-18T05:26:51;10.40;99.90
20998;DHT22;10657;51.276;6.390;2023-02-18T05:29:18;10.30;99.90
20998;DHT22;10657;51.276;6.390;2023-02-18T05:31:45;10.30;99.90
20998;DHT22;10657;51.276;6.390;2023-02-18T05:34:12;10.40;99.90
20998;DHT22;10657;51.276;6.390;2023-02-18T05:36:38;10.30;99.90
20998;DHT22;10657;51.276;6.390;2023-02-18T05:39:05;10.30;99.90
20998;DHT22;10657;51.276;6.390;2023-02-18T05:41:32;10.30;99.90
20998;DHT22;10657;51.276;6.390;2023-02-18T05:43:58;10.30;99.90
20998;DHT22;10657;51.276;6.390;2023-02-18T05:46:43;10.30;99.90
20998;DHT22;10657;51.276;6.390;2023-02-18T05:49:10;10.30;99.90
20998;DHT22;10657;51.276;6.390;2023-02-18T05:51:37;10.30;99.90
20998;DHT22;10657;51.276;6.390;2023-02-18T05:54:04;10.30;99.90
20998;DHT22;10657;51.276;6.390;2023-02-18T05:56:31;10.30;99.90
20998;DHT22;10657;51.276;6.390;2023-02-18T05:58:57;10.30;99.90
20998;DHT22;10657;51.276;6.390;2023-02-18T06:01:24;10.30;99.90
20998;DHT22;10657;51.276;6.390;2023-02-18T06:03:51;10.30;99.90
20998;DHT22;10657;51.276;6.390;2023-02-18T06:06:17;10.30;99.90
20998;DHT22;10657;51.276;6.390;2023-02-18T06:08:44;10.30;99.90
20998;DHT22;10657;51.276;6.390;2023-02-18T06:11:10;10.40;99.90
20998;DHT22;10657;51.276;6.390;2023-02-18T06:13:37;10.30;99.90
20998;DHT22;10657;51.276;6.390;2023-02-18T06:16:04;10.30;99.90
20998;DHT22;10657;51.276;6.390;2023-02-18T06:18:31;10.40;99.90
20998;DHT22;10657;51.276;6.390;2023-02-18T06:20:57;10.40;99.90
20998;DHT22;10657;51.276;6.390;2023-02-18T06:23:24;10.40;99.90
20998;DHT22;10657;51.276;6.390;2023-02-18T06:25:51;10.40;99.90
20998;DHT22;10657;51.276;6.390;2023-02-18T06:28:17;10.50;99.90
20998;DHT22;10657;51.276;6.390;2023-02-18T06:30:44;10.40;99.90
20998;DHT22;10657;51.276;6.390;2023-02-18T06:33:11;10.50;99.90
20998;DHT22;10657;51.276;6.390;2023-02-18T06:35:38;10.50;99.90
20998;DHT22;10657;51.276;6.390;2023-02-18T06:38:05;10.50;99.90
20998;DHT22;10657;51.276;6.390;2023-02-18T06:40:32;10.50;99.90
20998;DHT22;10657;51.276;6.390;2023-02-18T06:42:58;10.50;99.90
20998;DHT22;10657;51.276;6.390;2023-02-18T06:45:25;10.50;99.90
20998;DHT22;10657;51.276;6.390;2023-02-18T06:47:52;10.50;99.90
20998;DHT22;10657;51.276;6.390;2023-02-18T06:50:18;10.50;99.90
20998;DHT22;10657;51.276;6.390;2023-02-18T06:52:45;10.60;99.90
20998;DHT22;10657;51.276;6.390;2023-02-18T06:55:11;10.60;99.90
20998;DHT22;10657;51.276;6.390;2023-02-18T06:57:38;10.60;99.90
20998;DHT22;10657;51.276;6.390;2023-02-18T07:00:05;10.60;99.90
20998;DHT22;10657;51.276;6.390;2023-02-18T07:02:32;10.60;99.90
20998;DHT22;10657;51.276;6.390;2023-02-18T07:04:59;10.60;99.90
20998;DHT22;10657;51.276;6.390;2023-02-18T07:07:25;10.60;99.90
20998;DHT22;10657;51.276;6.390;2023-02-18T07:09:52;10.60;99.90
20998;DHT22;10657;51.276;6.390;2023-02-18T07:12:18;10.60;99.90
20998;DHT22;10657;51.276;6.390;2023-02-18T07:14:45;10.60;99.90
20998;DHT22;10657;51.276;6.390;2023-02-18T07:17:12;10.60;99.90
20998;DHT22;10657;51.276;6.390;2023-02-18T07:19:39;10.50;99.90
20998;DHT22;10657;51.276;6.390;2023-02-18T07:22:06;10.40;99.90
20998;DHT22;10657;51.276;6.390;2023-02-18T07:24:32;10.40;99.90
20998;DHT22;10657;51.276;6.390;2023-02-18T07:26:59;10.40;99.90
20998;DHT22;10657;51.276;6.390;2023-02-18T07:29:26;10.30;99.90
20998;DHT22;10657;51.276;6.390;2023-02-18T07:31:52;10.30;99.90
20998;DHT22;10657;51.276;6.390;2023-02-18T07:34:19;10.30;99.90
20998;DHT22;10657;51.276;6.390;2023-02-18T07:36:46;10.20;99.90
20998;DHT22;10657;51.276;6.390;2023-02-18T07:39:13;10.10;99.90
20998;DHT22;10657;51.276;6.390;2023-02-18T07:41:39;10.00;99.90
20998;DHT22;10657;51.276;6.390;2023-02-18T07:44:06;10.00;99.90
20998;DHT22;10657;51.276;6.390;2023-02-18T07:46:32;10.00;99.90
20998;DHT22;10657;51.276;6.390;2023-02-18T07:48:59;10.00;99.90
20998;DHT22;10657;51.276;6.390;2023-02-18T07:51:26;9.90;99.90
20998;DHT22;10657;51.276;6.390;2023-02-18T07:53:52;9.90;99.90
20998;DHT22;10657;51.276;6.390;2023-02-18T07:56:19;9.90;99.90
20998;DHT22;10657;51.276;6.390;2023-02-18T07:58:45;9.90;99.90
20998;DHT22;10657;51.276;6.390;2023-02-18T08:01:14;9.90;99.90
20998;DHT22;10657;51.276;6.390;2023-02-18T08:03:41;9.90;99.90
20998;DHT22;10657;51.276;6.390;2023-02-18T08:06:47;9.90;99.90
20998;DHT22;10657;51.276;6.390;2023-02-18T08:09:07;9.80;99.90
20998;DHT22;10657;51.276;6.390;2023-02-18T08:11:34;9.80;99.90
20998;DHT22;10657;51.276;6.390;2023-02-18T08:14:01;9.90;99.90
20998;DHT22;10657;51.276;6.390;2023-02-18T08:16:27;9.90;99.90
20998;DHT22;10657;51.276;6.390;2023-02-18T08:18:54;9.90;99.90
20998;DHT22;10657;51.276;6.390;2023-02-18T08:21:22;9.90;99.90
20998;DHT22;10657;51.276;6.390;2023-02-18T08:23:50;10.00;99.90
20998;DHT22;10657;51.276;6.390;2023-02-18T08:26:18;10.00;99.90
20998;DHT22;10657;51.276;6.390;2023-02-18T08:28:46;10.10;99.90
20998;DHT22;10657;51.276;6.390;2023-02-18T08:31:21;10.10;99.90
20998;DHT22;10657;51.276;6.390;2023-02-18T08:33:48;10.10;99.90
20998;DHT22;10657;51.276;6.390;2023-02-18T08:36:15;10.10;99.90
20998;DHT22;10657;51.276;6.390;2023-02-18T08:38:42;10.10;99.90
20998;DHT22;10657;51.276;6.390;2023-02-18T08:41:09;10.10;99.90
20998;DHT22;10657;51.276;6.390;2023-02-18T08:43:36;10.00;99.90
20998;DHT22;10657;51.276;6.390;2023-02-18T08:46:03;10.00;99.90
20998;DHT22;10657;51.276;6.390;2023-02-18T08:48:30;10.00;99.90
20998;DHT22;10657;51.276;6.390;2023-02-18T08:50:57;10.00;99.90
20998;DHT22;10657;51.276;6.390;2023-02-18T08:53:24;10.10;99.90
20998;DHT22;10657;51.276;6.390;2023-02-18T08:55:51;10.10;99.90
20998;DHT22;10657;51.276;6.390;2023-02-18T08:58:17;10.10;99.90
20998;DHT22;10657;51.276;6.390;2023-02-18T09:00:44;10.20;99.90
20998;DHT22;10657;51.276;6.390;2023-02-18T09:03:12;10.20;99.90
20998;DHT22;10657;51.276;6.390;2023-02-18T09:05:39;10.20;99.90
20998;DHT22;10657;51.276;6.390;2023-02-18T09:08:06;10.20;99.90
20998;DHT22;10657;51.276;6.390;2023-02-18T09:10:33;10.30;99.90
20998;DHT22;10657;51.276;6.390;2023-02-18T09:13:00;10.30;99.90
20998;DHT22;10657;51.276;6.390;2023-02-18T09:15:27;10.30;99.90
20998;DHT22;10657;51.276;6.390;2023-02-18T09:17:53;10.30;99.90
20998;DHT22;10657;51.276;6.390;2023-02-18T09:20:20;10.30;99.90
20998;DHT22;10657;51.276;6.390;2023-02-18T09:22:47;10.30;99.90
20998;DHT22;10657;51.276;6.390;2023-02-18T09:25:13;10.30;99.90
20998;DHT22;10657;51.276;6.390;2023-02-18T09:27:40;10.30;99.90
20998;DHT22;10657;51.276;6.390;2023-02-18T09:30:07;10.30;99.90
20998;DHT22;10657;51.276;6.390;2023-02-18T09:32:34;10.30;99.90
20998;DHT22;10657;51.276;6.390;2023-02-18T09:35:02;10.30;99.90
20998;DHT22;10657;51.276;6.390;2023-02-18T09:37:29;10.40;99.90
20998;DHT22;10657;51.276;6.390;2023-02-18T09:39:56;10.40;99.90
20998;DHT22;10657;51.276;6.390;2023-02-18T09:42:28;10.40;99.90
20998;DHT22;10657;51.276;6.390;2023-02-18T09:45:00;10.40;99.90
20998;DHT22;10657;51.276;6.390;2023-02-18T09:47:34;10.40;99.90
20998;DHT22;10657;51.276;6.390;2023-02-18T09:50:23;10.40;99.90
20998;DHT22;10657;51.276;6.390;2023-02-18T09:52:52;10.50;99.90
20998;DHT22;10657;51.276;6.390;2023-02-18T09:55:35;10.50;99.90
20998;DHT22;10657;51.276;6.390;2023-02-18T09:58:40;10.50;99.90
20998;DHT22;10657;51.276;6.390;2023-02-18T10:01:13;10.60;99.90
20998;DHT22;10657;51.276;6.390;2023-02-18T10:03:41;10.50;99.90
20998;DHT22;10657;51.276;6.390;2023-02-18T10:06:17;10.60;99.90
20998;DHT22;10657;51.276;6.390;2023-02-18T10:08:48;10.60;99.90
20998;DHT22;10657;51.276;6.390;2023-02-18T10:13:47;10.60;99.90
20998;DHT22;10657;51.276;6.390;2023-02-18T10:16:17;10.60;99.90
20998;DHT22;10657;51.276;6.390;2023-02-18T10:18:46;10.40;99.90
20998;DHT22;10657;51.276;6.390;2023-02-18T10:21:18;10.30;99.90
20998;DHT22;10657;51.276;6.390;2023-02-18T10:23:57;10.20;99.90
20998;DHT22;10657;51.276;6.390;2023-02-18T10:26:25;10.10;99.90
20998;DHT22;10657;51.276;6.390;2023-02-18T10:28:52;10.10;99.90
20998;DHT22;10657;51.276;6.390;2023-02-18T10:31:33;10.00;99.90
20998;DHT22;10657;51.276;6.390;2023-02-18T10:37:14;9.90;99.90
20998;DHT22;10657;51.276;6.390;2023-02-18T10:39:54;9.90;99.90
20998;DHT22;10657;51.276;6.390;2023-02-18T10:50:48;9.90;99.90
20998;DHT22;10657;51.276;6.390;2023-02-18T10:55:51;9.80;99.90
20998;DHT22;10657;51.276;6.390;2023-02-18T10:58:45;9.80;99.90
20998;DHT22;10657;51.276;6.390;2023-02-18T11:01:15;9.80;99.90
20998;DHT22;10657;51.276;6.390;2023-02-18T11:03:45;9.90;99.90
20998;DHT22;10657;51.276;6.390;2023-02-18T11:08:45;9.70;99.90
20998;DHT22;10657;51.276;6.390;2023-02-18T11:11:49;9.70;99.90
20998;DHT22;10657;51.276;6.390;2023-02-18T11:14:15;9.70;99.90
20998;DHT22;10657;51.276;6.390;2023-02-18T11:16:45;9.70;99.90
20998;DHT22;10657;51.276;6.390;2023-02-18T11:19:37;9.70;99.90
20998;DHT22;10657;51.276;6.390;2023-02-18T11:22:23;9.60;99.90
20998;DHT22;10657;51.276;6.390;2023-02-18T11:24:57;9.60;99.90
20998;DHT22;10657;51.276;6.390;2023-02-18T11:30:25;9.70;99.90
20998;DHT22;10657;51.276;6.390;2023-02-18T11:32:59;9.70;99.90
20998;DHT22;10657;51.276;6.390;2023-02-18T11:35:29;9.70;99.90
20998;DHT22;10657;51.276;6.390;2023-02-18T11:37:58;9.70;99.90
20998;DHT22;10657;51.276;6.390;2023-02-18T11:40:30;9.70;99.90
20998;DHT22;10657;51.276;6.390;2023-02-18T11:43:11;9.70;99.90
20998;DHT22;10657;51.276;6.390;2023-02-18T11:45:39;9.60;99.90
20998;DHT22;10657;51.276;6.390;2023-02-18T11:48:18;9.60;99.90
20998;DHT22;10657;51.276;6.390;2023-02-18T11:50:49;9.70;99.90
20998;DHT22;10657;51.276;6.390;2023-02-18T11:53:29;9.70;99.90
20998;DHT22;10657;51.276;6.390;2023-02-18T11:55:58;9.60;99.90
20998;DHT22;10657;51.276;6.390;2023-02-18T11:58:26;9.60;99.90
20998;DHT22;10657;51.276;6.390;2023-02-18T12:00:55;9.60;99.90
20998;DHT22;10657;51.276;6.390;2023-02-18T12:05:51;9.60;99.90
20998;DHT22;10657;51.276;6.390;2023-02-18T12:08:24;9.70;99.90
20998;DHT22;10657;51.276;6.390;2023-02-18T12:11:29;9.70;99.90
20998;DHT22;10657;51.276;6.390;2023-02-18T12:13:58;9.60;99.90
20998;DHT22;10657;51.276;6.390;2023-02-18T12:36:41;9.70;99.90
20998;DHT22;10657;51.276;6.390;2023-02-18T12:42:28;9.70;99.90
20998;DHT22;10657;51.276;6.390;2023-02-18T12:48:29;9.70;99.90
20998;DHT22;10657;51.276;6.390;2023-02-18T13:08:17;9.80;99.90
20998;DHT22;10657;51.276;6.390;2023-02-18T13:14:09;9.80;99.90
20998;DHT22;10657;51.276;6.390;2023-02-18T13:16:38;9.80;99.90
20998;DHT22;10657;51.276;6.390;2023-02-18T13:21:53;9.80;99.90
20998;DHT22;10657;51.276;6.390;2023-02-18T13:32:34;9.90;99.90
20998;DHT22;10657;51.276;6.390;2023-02-18T13:40:24;9.90;99.90
20998;DHT22;10657;51.276;6.390;2023-02-18T13:42:52;10.00;99.90
20998;DHT22;10657;51.276;6.390;2023-02-18T13:45:23;10.00;99.90
20998;DHT22;10657;51.276;6.390;2023-02-18T13:47:51;10.00;99.90
20998;DHT22;10657;51.276;6.390;2023-02-18T13:52:49;10.00;99.90
20998;DHT22;10657;51.276;6.390;2023-02-18T13:55:22;10.00;99.90
20998;DHT22;10657;51.276;6.390;2023-02-18T13:57:53;10.00;99.90
20998;DHT22;10657;51.276;6.390;2023-02-18T14:00:33;10.00;99.90
20998;DHT22;10657;51.276;6.390;2023-02-18T14:03:18;10.10;99.90
20998;DHT22;10657;51.276;6.390;2023-02-18T14:05:45;10.10;99.90
20998;DHT22;10657;51.276;6.390;2023-02-18T14:08:15;10.10;99.90
20998;DHT22;10657;51.276;6.390;2023-02-18T14:14:14;10.20;99.90
20998;DHT22;10657;51.276;6.390;2023-02-18T14:17:13;10.20;99.90
20998;DHT22;10657;51.276;6.390;2023-02-18T14:19:40;10.20;99.90
20998;DHT22;10657;51.276;6.390;2023-02-18T14:25:02;10.20;99.90
20998;DHT22;10657;51.276;6.390;2023-02-18T14:27:29;10.20;99.90
20998;DHT22;10657;51.276;6.390;2023-02-18T14:30:05;10.30;99.90
20998;DHT22;10657;51.276;6.390;2023-02-18T14:32:33;10.30;99.90
20998;DHT22;10657;51.276;6.390;2023-02-18T14:40:31;10.30;99.90
20998;DHT22;10657;51.276;6.390;2023-02-18T14:48:43;10.30;99.90
20998;DHT22;10657;51.276;6.390;2023-02-18T14:51:18;10.30;99.90
20998;DHT22;10657;51.276;6.390;2023-02-18T14:53:47;10.30;99.90
20998;DHT22;10657;51.276;6.390;2023-02-18T14:56:16;10.30;99.90
20998;DHT22;10657;51.276;6.390;2023-02-18T14:58:58;10.40;99.90
20998;DHT22;10657;51.276;6.390;2023-02-18T15:01:31;10.30;99.90
20998;DHT22;10657;51.276;6.390;2023-02-18T15:04:00;10.30;99.90
20998;DHT22;10657;51.276;6.390;2023-02-18T15:06:35;10.30;99.90
20998;DHT22;10657;51.276;6.390;2023-02-18T15:09:19;10.30;99.90
20998;DHT22;10657;51.276;6.390;2023-02-18T15:14:25;10.30;99.90
20998;DHT22;10657;51.276;6.390;2023-02-18T15:16:52;10.30;99.90
20998;DHT22;10657;51.276;6.390;2023-02-18T15:19:23;10.30;99.90
20998;DHT22;10657;51.276;6.390;2023-02-18T15:21:53;10.30;99.90
20998;DHT22;10657;51.276;6.390;2023-02-18T15:24:26;10.40;99.90
20998;DHT22;10657;51.276;6.390;2023-02-18T15:27:00;10.40;99.90
20998;DHT22;10657;51.276;6.390;2023-02-18T15:29:34;10.40;99.90
20998;DHT22;10657;51.276;6.390;2023-02-18T15:32:18;10.40;99.90
20998;DHT22;10657;51.276;6.390;2023-02-18T15:34:48;10.40;99.90
20998;DHT22;10657;51.276;6.390;2023-02-18T15:37:15;10.50;99.90
20998;DHT22;10657;51.276;6.390;2023-02-18T15:39:42;10.50;99.90
20998;DHT22;10657;51.276;6.390;2023-02-18T15:45:24;10.50;99.90
20998;DHT22;10657;51.276;6.390;2023-02-18T15:47:45;10.40;99.90
20998;DHT22;10657;51.276;6.390;2023-02-18T15:50:24;10.50;99.90
20998;DHT22;10657;51.276;6.390;2023-02-18T15:52:53;10.50;99.90
20998;DHT22;10657;51.276;6.390;2023-02-18T15:55:26;10.50;99.90
20998;DHT22;10657;51.276;6.390;2023-02-18T15:57:55;10.50;99.90
20998;DHT22;10657;51.276;6.390;2023-02-18T16:00:49;10.50;99.90
20998;DHT22;10657;51.276;6.390;2023-02-18T16:03:24;10.50;99.90
20998;DHT22;10657;51.276;6.390;2023-02-18T16:06:17;10.50;99.90
20998;DHT22;10657;51.276;6.390;2023-02-18T16:09:11;10.50;99.90
20998;DHT22;10657;51.276;6.390;2023-02-18T16:11:43;10.50;99.90
20998;DHT22;10657;51.276;6.390;2023-02-18T16:17:08;10.50;99.90
20998;DHT22;10657;51.276;6.390;2023-02-18T16:19:50;10.50;99.90
20998;DHT22;10657;51.276;6.390;2023-02-18T16:22:35;10.50;99.90
20998;DHT22;10657;51.276;6.390;2023-02-18T16:30:17;10.60;99.90
20998;DHT22;10657;51.276;6.390;2023-02-18T16:32:44;10.60;99.90
20998;DHT22;10657;51.276;6.390;2023-02-18T16:35:11;10.60;99.90
20998;DHT22;10657;51.276;6.390;2023-02-18T16:37:40;10.60;99.90
20998;DHT22;10657;51.276;6.390;2023-02-18T16:40:20;10.50;99.90
20998;DHT22;10657;51.276;6.390;2023-02-18T16:42:48;10.60;99.90
20998;DHT22;10657;51.276;6.390;2023-02-18T16:45:14;10.50;99.90
20998;DHT22;10657;51.276;6.390;2023-02-18T16:47:43;10.50;99.90
20998;DHT22;10657;51.276;6.390;2023-02-18T16:50:17;10.50;99.90
20998;DHT22;10657;51.276;6.390;2023-02-18T16:52:44;10.50;99.90
20998;DHT22;10657;51.276;6.390;2023-02-18T16:55:22;10.50;99.90
20998;DHT22;10657;51.276;6.390;2023-02-18T16:57:50;10.50;99.90
20998;DHT22;10657;51.276;6.390;2023-02-18T17:00:17;10.50;99.90
20998;DHT22;10657;51.276;6.390;2023-02-18T17:02:49;10.50;99.90
20998;DHT22;10657;51.276;6.390;2023-02-18T17:05:22;10.50;99.90
20998;DHT22;10657;51.276;6.390;2023-02-18T17:07:53;10.50;99.90
20998;DHT22;10657;51.276;6.390;2023-02-18T17:10:20;10.50;99.90
20998;DHT22;10657;51.276;6.390;2023-02-18T17:12:46;10.50;99.90
20998;DHT22;10657;51.276;6.390;2023-02-18T17:15:24;10.50;99.90
20998;DHT22;10657;51.276;6.390;2023-02-18T17:17:52;10.50;99.90
20998;DHT22;10657;51.276;6.390;2023-02-18T17:20:19;10.50;99.90
20998;DHT22;10657;51.276;6.390;2023-02-18T17:22:46;10.50;99.90
20998;DHT22;10657;51.276;6.390;2023-02-18T17:25:22;10.50;99.90
20998;DHT22;10657;51.276;6.390;2023-02-18T17:27:50;10.40;99.90
20998;DHT22;10657;51.276;6.390;2023-02-18T17:30:16;10.40;99.90
20998;DHT22;10657;51.276;6.390;2023-02-18T17:32:44;10.40;99.90
20998;DHT22;10657;51.276;6.390;2023-02-18T17:35:19;10.40;99.90
20998;DHT22;10657;51.276;6.390;2023-02-18T17:37:46;10.40;99.90
20998;DHT22;10657;51.276;6.390;2023-02-18T17:40:16;10.30;99.90
20998;DHT22;10657;51.276;6.390;2023-02-18T17:42:43;10.30;99.90
20998;DHT22;10657;51.276;6.390;2023-02-18T17:45:27;10.30;99.90
20998;DHT22;10657;51.276;6.390;2023-02-18T17:47:55;10.30;99.90
20998;DHT22;10657;51.276;6.390;2023-02-18T17:50:22;10.20;99.90
20998;DHT22;10657;51.276;6.390;2023-02-18T17:52:49;10.30;99.90
20998;DHT22;10657;51.276;6.390;2023-02-18T17:55:20;10.30;99.90
20998;DHT22;10657;51.276;6.390;2023-02-18T17:57:48;10.30;99.90
20998;DHT22;10657;51.276;6.390;2023-02-18T18:00:18;10.30;99.90
20998;DHT22;10657;51.276;6.390;2023-02-18T18:02:45;10.30;99.90
20998;DHT22;10657;51.276;6.390;2023-02-18T18:05:40;10.30;99.90
20998;DHT22;10657;51.276;6.390;2023-02-18T18:08:04;10.20;99.90
20998;DHT22;10657;51.276;6.390;2023-02-18T18:10:34;10.20;99.90
20998;DHT22;10657;51.276;6.390;2023-02-18T18:13:06;10.20;99.90
20998;DHT22;10657;51.276;6.390;2023-02-18T18:15:36;10.20;99.90
20998;DHT22;10657;51.276;6.390;2023-02-18T18:18:03;10.20;99.90
20998;DHT22;10657;51.276;6.390;2023-02-18T18:20:32;10.20;99.90
20998;DHT22;10657;51.276;6.390;2023-02-18T18:23:02;10.20;99.90
20998;DHT22;10657;51.276;6.390;2023-02-18T18:25:33;10.20;99.90
20998;DHT22;10657;51.276;6.390;2023-02-18T18:28:01;10.20;99.90
20998;DHT22;10657;51.276;6.390;2023-02-18T18:30:30;10.20;99.90
20998;DHT22;10657;51.276;6.390;2023-02-18T18:32:57;10.20;99.90